Terminal Aerodrome Forecast
Issued by NWS Austin/San Antonio, TX

Home | Current Version | Previous Version | Text Only | Print | Product List | Glossary On
Versions: 1 2 3 4 5 6 7 8 9 10 11 12 13 14
851
FTUS44 KEWX 291151 AAA
TAFDRT
TAF AMD
KDRT 291151Z 2912/3012 11010KT P6SM FEW010 BKN021
     FM291500 32010KT P6SM SCT250
     FM292200 31014G24KT P6SM BKN100=

USA.gov is the U.S. government's official web portal to all federal, state and local government web resources and services.